Terminal Aerodrome Forecast
Issued by NWS

Home | Current Version | Previous Version | Text Only | Print | Product List | Glossary Off
Versions: 1 2 3 4 5 6 7 8 9 10 11 12 13 14 15 16 17

000
FTUS43 KGRB 211720
TAFATW
TAF
KATW 211720Z 2118/2218 26009KT P6SM SKC
     FM212200 21007KT P6SM SCT250
     FM220300 18008KT P6SM SCT250 WS009/20035KT
     FM220700 20006KT P6SM SCT100 WS009/24035KT
     FM221400 23007KT P6SM SCT150=

USA.gov is the U.S. government's official web portal to all federal, state and local government web resources and services.